sensor_id;sensor_type;location;lat;lon;timestamp;P1;durP1;ratioP1;P2;durP2;ratioP2
25952;SDS011;13750;50.804;8.764;2023-04-03T00:00:37;0.73;;;0.57;;
25952;SDS011;13750;50.804;8.764;2023-04-03T00:05:52;0.60;;;0.50;;
25952;SDS011;13750;50.804;8.764;2023-04-03T00:08:17;0.57;;;0.40;;
25952;SDS011;13750;50.804;8.764;2023-04-03T00:10:43;1.37;;;0.57;;
25952;SDS011;13750;50.804;8.764;2023-04-03T00:13:09;0.87;;;0.70;;
25952;SDS011;13750;50.804;8.764;2023-04-03T00:15:35;1.23;;;0.60;;
25952;SDS011;13750;50.804;8.764;2023-04-03T00:18:02;3.13;;;0.65;;
25952;SDS011;13750;50.804;8.764;2023-04-03T00:20:28;1.35;;;0.75;;
25952;SDS011;13750;50.804;8.764;2023-04-03T00:22:54;1.60;;;0.57;;
25952;SDS011;13750;50.804;8.764;2023-04-03T00:25:20;0.60;;;0.43;;
25952;SDS011;13750;50.804;8.764;2023-04-03T00:27:46;1.70;;;0.70;;
25952;SDS011;13750;50.804;8.764;2023-04-03T00:30:13;1.67;;;0.60;;
25952;SDS011;13750;50.804;8.764;2023-04-03T00:32:41;1.20;;;0.70;;
25952;SDS011;13750;50.804;8.764;2023-04-03T00:35:07;1.43;;;0.60;;
25952;SDS011;13750;50.804;8.764;2023-04-03T00:37:33;1.35;;;0.68;;
25952;SDS011;13750;50.804;8.764;2023-04-03T00:39:59;1.20;;;0.67;;
25952;SDS011;13750;50.804;8.764;2023-04-03T00:42:25;0.83;;;0.50;;
25952;SDS011;13750;50.804;8.764;2023-04-03T00:47:22;2.13;;;0.52;;
25952;SDS011;13750;50.804;8.764;2023-04-03T00:52:16;1.25;;;0.70;;
25952;SDS011;13750;50.804;8.764;2023-04-03T00:54:45;0.65;;;0.55;;
25952;SDS011;13750;50.804;8.764;2023-04-03T00:57:13;1.30;;;0.73;;
25952;SDS011;13750;50.804;8.764;2023-04-03T00:59:42;1.73;;;0.80;;
25952;SDS011;13750;50.804;8.764;2023-04-03T01:02:13;0.93;;;0.73;;
25952;SDS011;13750;50.804;8.764;2023-04-03T01:04:39;1.93;;;0.83;;
25952;SDS011;13750;50.804;8.764;2023-04-03T01:07:07;1.55;;;0.70;;
25952;SDS011;13750;50.804;8.764;2023-04-03T01:09:40;1.27;;;0.60;;
25952;SDS011;13750;50.804;8.764;2023-04-03T01:14:56;1.60;;;0.40;;
25952;SDS011;13750;50.804;8.764;2023-04-03T01:17:37;0.57;;;0.52;;
25952;SDS011;13750;50.804;8.764;2023-04-03T01:25:31;1.52;;;0.70;;
25952;SDS011;13750;50.804;8.764;2023-04-03T01:27:57;1.08;;;0.40;;
25952;SDS011;13750;50.804;8.764;2023-04-03T01:30:24;1.93;;;0.70;;
25952;SDS011;13750;50.804;8.764;2023-04-03T01:32:54;1.52;;;0.60;;
25952;SDS011;13750;50.804;8.764;2023-04-03T01:35:20;0.70;;;0.60;;
25952;SDS011;13750;50.804;8.764;2023-04-03T01:37:46;0.67;;;0.60;;
25952;SDS011;13750;50.804;8.764;2023-04-03T01:40:11;0.40;;;0.40;;
25952;SDS011;13750;50.804;8.764;2023-04-03T01:42:37;0.67;;;0.40;;
25952;SDS011;13750;50.804;8.764;2023-04-03T01:45:02;1.77;;;0.70;;
25952;SDS011;13750;50.804;8.764;2023-04-03T01:47:28;1.83;;;0.60;;
25952;SDS011;13750;50.804;8.764;2023-04-03T01:49:54;2.33;;;0.97;;
25952;SDS011;13750;50.804;8.764;2023-04-03T01:52:19;0.83;;;0.77;;
25952;SDS011;13750;50.804;8.764;2023-04-03T01:54:45;2.37;;;0.50;;
25952;SDS011;13750;50.804;8.764;2023-04-03T01:57:11;1.30;;;0.50;;
25952;SDS011;13750;50.804;8.764;2023-04-03T01:59:38;0.50;;;0.40;;
25952;SDS011;13750;50.804;8.764;2023-04-03T02:02:03;0.57;;;0.43;;
25952;SDS011;13750;50.804;8.764;2023-04-03T02:04:29;0.60;;;0.47;;
25952;SDS011;13750;50.804;8.764;2023-04-03T02:06:55;2.47;;;0.50;;
25952;SDS011;13750;50.804;8.764;2023-04-03T02:09:20;0.60;;;0.50;;
25952;SDS011;13750;50.804;8.764;2023-04-03T02:11:46;0.70;;;0.40;;
25952;SDS011;13750;50.804;8.764;2023-04-03T02:14:12;1.60;;;0.57;;
25952;SDS011;13750;50.804;8.764;2023-04-03T02:16:37;0.77;;;0.40;;
25952;SDS011;13750;50.804;8.764;2023-04-03T02:19:03;0.97;;;0.40;;
25952;SDS011;13750;50.804;8.764;2023-04-03T02:21:29;1.43;;;0.57;;
25952;SDS011;13750;50.804;8.764;2023-04-03T02:23:54;0.93;;;0.60;;
25952;SDS011;13750;50.804;8.764;2023-04-03T02:26:20;2.27;;;0.63;;
25952;SDS011;13750;50.804;8.764;2023-04-03T02:28:46;1.10;;;0.40;;
25952;SDS011;13750;50.804;8.764;2023-04-03T02:31:11;1.75;;;0.60;;
25952;SDS011;13750;50.804;8.764;2023-04-03T02:33:38;1.40;;;0.60;;
25952;SDS011;13750;50.804;8.764;2023-04-03T02:36:04;2.87;;;1.40;;
25952;SDS011;13750;50.804;8.764;2023-04-03T02:38:33;1.05;;;0.50;;
25952;SDS011;13750;50.804;8.764;2023-04-03T02:41:03;1.17;;;0.87;;
25952;SDS011;13750;50.804;8.764;2023-04-03T02:43:33;0.90;;;0.57;;
25952;SDS011;13750;50.804;8.764;2023-04-03T02:45:58;0.60;;;0.60;;
25952;SDS011;13750;50.804;8.764;2023-04-03T02:48:24;0.87;;;0.60;;
25952;SDS011;13750;50.804;8.764;2023-04-03T02:50:50;1.90;;;0.40;;
25952;SDS011;13750;50.804;8.764;2023-04-03T02:53:16;0.70;;;0.53;;
25952;SDS011;13750;50.804;8.764;2023-04-03T02:55:42;1.00;;;0.47;;
25952;SDS011;13750;50.804;8.764;2023-04-03T02:58:07;1.50;;;0.60;;
25952;SDS011;13750;50.804;8.764;2023-04-03T03:00:33;1.13;;;0.60;;
25952;SDS011;13750;50.804;8.764;2023-04-03T03:02:59;2.83;;;0.60;;
25952;SDS011;13750;50.804;8.764;2023-04-03T03:05:25;5.33;;;0.67;;
25952;SDS011;13750;50.804;8.764;2023-04-03T03:07:52;1.55;;;0.70;;
25952;SDS011;13750;50.804;8.764;2023-04-03T03:10:17;1.90;;;0.70;;
25952;SDS011;13750;50.804;8.764;2023-04-03T03:12:43;1.97;;;0.73;;
25952;SDS011;13750;50.804;8.764;2023-04-03T03:15:09;1.30;;;0.87;;
25952;SDS011;13750;50.804;8.764;2023-04-03T03:17:35;1.03;;;0.57;;
25952;SDS011;13750;50.804;8.764;2023-04-03T03:20:01;2.30;;;0.88;;
25952;SDS011;13750;50.804;8.764;2023-04-03T03:22:27;1.85;;;0.80;;
25952;SDS011;13750;50.804;8.764;2023-04-03T03:24:53;1.30;;;0.50;;
25952;SDS011;13750;50.804;8.764;2023-04-03T03:27:19;1.88;;;0.70;;
25952;SDS011;13750;50.804;8.764;2023-04-03T03:29:45;2.00;;;0.60;;
25952;SDS011;13750;50.804;8.764;2023-04-03T03:32:11;1.53;;;0.67;;
25952;SDS011;13750;50.804;8.764;2023-04-03T03:34:37;1.40;;;0.73;;
25952;SDS011;13750;50.804;8.764;2023-04-03T03:37:02;1.57;;;0.90;;
25952;SDS011;13750;50.804;8.764;2023-04-03T03:39:28;1.63;;;0.60;;
25952;SDS011;13750;50.804;8.764;2023-04-03T03:41:54;2.80;;;0.70;;
25952;SDS011;13750;50.804;8.764;2023-04-03T03:44:20;2.30;;;0.70;;
25952;SDS011;13750;50.804;8.764;2023-04-03T03:46:45;1.27;;;0.87;;
25952;SDS011;13750;50.804;8.764;2023-04-03T03:49:11;1.73;;;0.70;;
25952;SDS011;13750;50.804;8.764;2023-04-03T03:51:37;3.97;;;1.00;;
25952;SDS011;13750;50.804;8.764;2023-04-03T03:54:03;2.25;;;0.90;;
25952;SDS011;13750;50.804;8.764;2023-04-03T03:56:29;1.05;;;0.65;;
25952;SDS011;13750;50.804;8.764;2023-04-03T03:58:55;2.20;;;0.70;;
25952;SDS011;13750;50.804;8.764;2023-04-03T04:01:22;3.57;;;1.27;;
25952;SDS011;13750;50.804;8.764;2023-04-03T04:06:14;1.90;;;0.80;;
25952;SDS011;13750;50.804;8.764;2023-04-03T04:08:40;4.70;;;1.73;;
25952;SDS011;13750;50.804;8.764;2023-04-03T04:11:05;1.43;;;1.13;;
25952;SDS011;13750;50.804;8.764;2023-04-03T04:13:32;1.85;;;0.80;;
25952;SDS011;13750;50.804;8.764;2023-04-03T04:15:57;3.43;;;1.03;;
25952;SDS011;13750;50.804;8.764;2023-04-03T04:18:23;2.47;;;1.33;;
25952;SDS011;13750;50.804;8.764;2023-04-03T04:20:49;2.10;;;0.90;;
25952;SDS011;13750;50.804;8.764;2023-04-03T04:23:15;1.70;;;0.97;;
25952;SDS011;13750;50.804;8.764;2023-04-03T04:25:41;1.88;;;1.00;;
25952;SDS011;13750;50.804;8.764;2023-04-03T04:28:10;3.30;;;1.02;;
25952;SDS011;13750;50.804;8.764;2023-04-03T04:30:35;3.97;;;1.67;;
25952;SDS011;13750;50.804;8.764;2023-04-03T04:33:01;0.87;;;0.80;;
25952;SDS011;13750;50.804;8.764;2023-04-03T04:35:27;2.60;;;0.97;;
25952;SDS011;13750;50.804;8.764;2023-04-03T04:37:52;2.90;;;1.03;;
25952;SDS011;13750;50.804;8.764;2023-04-03T04:40:18;2.40;;;0.80;;
25952;SDS011;13750;50.804;8.764;2023-04-03T04:42:43;1.60;;;0.93;;
25952;SDS011;13750;50.804;8.764;2023-04-03T04:45:09;1.67;;;0.60;;
25952;SDS011;13750;50.804;8.764;2023-04-03T04:47:35;2.83;;;1.23;;
25952;SDS011;13750;50.804;8.764;2023-04-03T04:50:00;1.60;;;0.73;;
25952;SDS011;13750;50.804;8.764;2023-04-03T04:52:26;2.83;;;1.10;;
25952;SDS011;13750;50.804;8.764;2023-04-03T04:54:51;1.83;;;0.80;;
25952;SDS011;13750;50.804;8.764;2023-04-03T04:57:17;2.83;;;0.80;;
25952;SDS011;13750;50.804;8.764;2023-04-03T04:59:43;2.20;;;1.23;;
25952;SDS011;13750;50.804;8.764;2023-04-03T05:02:08;3.83;;;1.10;;
25952;SDS011;13750;50.804;8.764;2023-04-03T05:04:34;2.53;;;0.97;;
25952;SDS011;13750;50.804;8.764;2023-04-03T05:06:59;1.53;;;0.80;;
25952;SDS011;13750;50.804;8.764;2023-04-03T05:09:25;4.43;;;0.97;;
25952;SDS011;13750;50.804;8.764;2023-04-03T05:11:51;2.07;;;0.80;;
25952;SDS011;13750;50.804;8.764;2023-04-03T05:14:16;2.03;;;0.70;;
25952;SDS011;13750;50.804;8.764;2023-04-03T05:16:45;2.45;;;0.95;;
25952;SDS011;13750;50.804;8.764;2023-04-03T05:19:11;2.20;;;0.90;;
25952;SDS011;13750;50.804;8.764;2023-04-03T05:21:37;2.90;;;1.07;;
25952;SDS011;13750;50.804;8.764;2023-04-03T05:24:02;2.33;;;0.80;;
25952;SDS011;13750;50.804;8.764;2023-04-03T05:26:29;4.03;;;1.50;;
25952;SDS011;13750;50.804;8.764;2023-04-03T05:28:55;2.63;;;1.10;;
25952;SDS011;13750;50.804;8.764;2023-04-03T05:31:21;1.83;;;0.80;;
25952;SDS011;13750;50.804;8.764;2023-04-03T05:33:47;2.83;;;1.13;;
25952;SDS011;13750;50.804;8.764;2023-04-03T05:36:15;2.40;;;0.90;;
25952;SDS011;13750;50.804;8.764;2023-04-03T05:38:40;2.22;;;1.10;;
25952;SDS011;13750;50.804;8.764;2023-04-03T05:41:06;3.13;;;0.80;;
25952;SDS011;13750;50.804;8.764;2023-04-03T05:43:32;3.80;;;1.00;;
25952;SDS011;13750;50.804;8.764;2023-04-03T05:45:59;2.53;;;1.15;;
25952;SDS011;13750;50.804;8.764;2023-04-03T05:48:25;2.90;;;1.00;;
25952;SDS011;13750;50.804;8.764;2023-04-03T05:50:51;3.93;;;1.20;;
25952;SDS011;13750;50.804;8.764;2023-04-03T05:53:25;2.97;;;1.00;;
25952;SDS011;13750;50.804;8.764;2023-04-03T05:55:55;2.50;;;1.00;;
25952;SDS011;13750;50.804;8.764;2023-04-03T05:58:23;2.45;;;0.88;;
25952;SDS011;13750;50.804;8.764;2023-04-03T06:00:49;4.23;;;0.97;;
25952;SDS011;13750;50.804;8.764;2023-04-03T06:03:15;1.20;;;0.87;;
25952;SDS011;13750;50.804;8.764;2023-04-03T06:05:41;3.50;;;1.08;;
25952;SDS011;13750;50.804;8.764;2023-04-03T06:08:07;1.60;;;0.90;;
25952;SDS011;13750;50.804;8.764;2023-04-03T06:10:36;0.60;;;0.52;;
25952;SDS011;13750;50.804;8.764;2023-04-03T06:13:02;5.03;;;1.58;;
25952;SDS011;13750;50.804;8.764;2023-04-03T06:15:27;2.83;;;1.37;;
25952;SDS011;13750;50.804;8.764;2023-04-03T06:17:53;2.33;;;0.93;;
25952;SDS011;13750;50.804;8.764;2023-04-03T06:20:19;2.20;;;0.90;;
25952;SDS011;13750;50.804;8.764;2023-04-03T06:22:45;10.27;;;1.85;;
25952;SDS011;13750;50.804;8.764;2023-04-03T06:25:10;4.53;;;2.47;;
25952;SDS011;13750;50.804;8.764;2023-04-03T06:27:37;12.75;;;3.88;;
25952;SDS011;13750;50.804;8.764;2023-04-03T06:30:06;6.95;;;1.65;;
25952;SDS011;13750;50.804;8.764;2023-04-03T06:32:32;19.13;;;4.75;;
25952;SDS011;13750;50.804;8.764;2023-04-03T06:34:57;13.50;;;4.67;;
25952;SDS011;13750;50.804;8.764;2023-04-03T06:37:23;7.10;;;2.37;;
25952;SDS011;13750;50.804;8.764;2023-04-03T06:39:53;23.92;;;5.80;;
25952;SDS011;13750;50.804;8.764;2023-04-03T06:42:19;11.60;;;3.20;;
25952;SDS011;13750;50.804;8.764;2023-04-03T06:44:45;14.45;;;4.22;;
25952;SDS011;13750;50.804;8.764;2023-04-03T06:47:15;19.20;;;5.30;;
25952;SDS011;13750;50.804;8.764;2023-04-03T06:49:42;11.32;;;4.75;;
25952;SDS011;13750;50.804;8.764;2023-04-03T06:52:08;6.97;;;2.60;;
25952;SDS011;13750;50.804;8.764;2023-04-03T06:54:37;16.73;;;4.78;;
25952;SDS011;13750;50.804;8.764;2023-04-03T06:57:05;6.95;;;2.67;;
25952;SDS011;13750;50.804;8.764;2023-04-03T06:59:31;7.18;;;2.63;;
25952;SDS011;13750;50.804;8.764;2023-04-03T07:02:00;5.25;;;2.03;;
25952;SDS011;13750;50.804;8.764;2023-04-03T07:04:26;1.93;;;1.20;;
25952;SDS011;13750;50.804;8.764;2023-04-03T07:06:51;2.93;;;1.20;;
25952;SDS011;13750;50.804;8.764;2023-04-03T07:09:19;22.90;;;5.30;;
25952;SDS011;13750;50.804;8.764;2023-04-03T07:11:45;3.90;;;1.90;;
25952;SDS011;13750;50.804;8.764;2023-04-03T07:14:11;1.23;;;1.00;;
25952;SDS011;13750;50.804;8.764;2023-04-03T07:16:37;3.00;;;1.63;;
25952;SDS011;13750;50.804;8.764;2023-04-03T07:19:02;3.37;;;1.10;;
25952;SDS011;13750;50.804;8.764;2023-04-03T07:21:36;3.40;;;1.50;;
25952;SDS011;13750;50.804;8.764;2023-04-03T07:24:05;8.57;;;2.90;;
25952;SDS011;13750;50.804;8.764;2023-04-03T07:26:31;8.50;;;2.87;;
25952;SDS011;13750;50.804;8.764;2023-04-03T07:28:56;14.93;;;4.03;;
25952;SDS011;13750;50.804;8.764;2023-04-03T07:37:58;1.92;;;1.00;;
25952;SDS011;13750;50.804;8.764;2023-04-03T07:40:49;3.28;;;0.90;;
25952;SDS011;13750;50.804;8.764;2023-04-03T07:43:18;3.45;;;1.00;;
25952;SDS011;13750;50.804;8.764;2023-04-03T07:45:48;1.48;;;1.17;;
25952;SDS011;13750;50.804;8.764;2023-04-03T07:48:25;1.42;;;0.90;;
25952;SDS011;13750;50.804;8.764;2023-04-03T07:50:51;1.70;;;1.00;;
25952;SDS011;13750;50.804;8.764;2023-04-03T07:53:17;1.47;;;1.17;;
25952;SDS011;13750;50.804;8.764;2023-04-03T07:55:46;3.50;;;1.42;;
25952;SDS011;13750;50.804;8.764;2023-04-03T07:58:16;2.50;;;1.20;;
25952;SDS011;13750;50.804;8.764;2023-04-03T08:00:44;3.28;;;1.30;;
25952;SDS011;13750;50.804;8.764;2023-04-03T08:03:11;3.55;;;1.60;;
25952;SDS011;13750;50.804;8.764;2023-04-03T08:05:41;2.38;;;1.40;;
25952;SDS011;13750;50.804;8.764;2023-04-03T08:08:09;1.40;;;1.15;;
25952;SDS011;13750;50.804;8.764;2023-04-03T08:10:37;2.22;;;1.30;;
25952;SDS011;13750;50.804;8.764;2023-04-03T08:13:03;6.57;;;2.27;;
25952;SDS011;13750;50.804;8.764;2023-04-03T08:15:32;33.67;;;7.95;;
25952;SDS011;13750;50.804;8.764;2023-04-03T08:17:58;6.72;;;2.90;;
25952;SDS011;13750;50.804;8.764;2023-04-03T08:20:25;6.60;;;2.15;;
25952;SDS011;13750;50.804;8.764;2023-04-03T08:22:51;2.95;;;1.63;;
25952;SDS011;13750;50.804;8.764;2023-04-03T08:25:17;1.37;;;1.10;;
25952;SDS011;13750;50.804;8.764;2023-04-03T08:27:46;4.80;;;1.83;;
25952;SDS011;13750;50.804;8.764;2023-04-03T08:30:11;12.90;;;3.70;;
25952;SDS011;13750;50.804;8.764;2023-04-03T08:32:37;12.60;;;4.07;;
25952;SDS011;13750;50.804;8.764;2023-04-03T08:35:05;8.00;;;2.13;;
25952;SDS011;13750;50.804;8.764;2023-04-03T08:37:31;8.68;;;2.97;;
25952;SDS011;13750;50.804;8.764;2023-04-03T08:39:59;3.85;;;1.70;;
25952;SDS011;13750;50.804;8.764;2023-04-03T08:45:20;3.22;;;1.38;;
25952;SDS011;13750;50.804;8.764;2023-04-03T08:48:00;4.63;;;1.58;;
25952;SDS011;13750;50.804;8.764;2023-04-03T08:50:41;3.75;;;1.58;;
25952;SDS011;13750;50.804;8.764;2023-04-03T08:53:16;1.98;;;1.20;;
25952;SDS011;13750;50.804;8.764;2023-04-03T08:55:50;3.20;;;1.50;;
25952;SDS011;13750;50.804;8.764;2023-04-03T08:58:19;4.97;;;1.33;;
25952;SDS011;13750;50.804;8.764;2023-04-03T09:03:23;2.10;;;1.10;;
25952;SDS011;13750;50.804;8.764;2023-04-03T09:08:30;3.28;;;0.82;;
25952;SDS011;13750;50.804;8.764;2023-04-03T09:13:36;1.30;;;0.90;;
25952;SDS011;13750;50.804;8.764;2023-04-03T09:16:34;1.40;;;1.17;;
25952;SDS011;13750;50.804;8.764;2023-04-03T09:19:21;1.17;;;0.82;;
25952;SDS011;13750;50.804;8.764;2023-04-03T09:21:48;1.38;;;0.82;;
25952;SDS011;13750;50.804;8.764;2023-04-03T09:24:14;0.83;;;0.70;;
25952;SDS011;13750;50.804;8.764;2023-04-03T09:26:46;3.10;;;1.00;;
25952;SDS011;13750;50.804;8.764;2023-04-03T09:29:18;0.67;;;0.67;;
25952;SDS011;13750;50.804;8.764;2023-04-03T09:31:48;2.13;;;1.00;;
25952;SDS011;13750;50.804;8.764;2023-04-03T09:34:19;1.52;;;0.90;;
25952;SDS011;13750;50.804;8.764;2023-04-03T09:37:01;2.65;;;1.17;;
25952;SDS011;13750;50.804;8.764;2023-04-03T09:39:31;3.60;;;1.48;;
25952;SDS011;13750;50.804;8.764;2023-04-03T09:42:20;1.40;;;1.30;;
25952;SDS011;13750;50.804;8.764;2023-04-03T09:44:55;1.20;;;0.90;;
25952;SDS011;13750;50.804;8.764;2023-04-03T09:47:26;1.77;;;0.98;;
25952;SDS011;13750;50.804;8.764;2023-04-03T09:52:35;1.45;;;0.98;;
25952;SDS011;13750;50.804;8.764;2023-04-03T09:55:43;1.67;;;0.90;;
25952;SDS011;13750;50.804;8.764;2023-04-03T09:58:00;1.83;;;1.08;;
25952;SDS011;13750;50.804;8.764;2023-04-03T10:00:37;1.33;;;0.90;;
25952;SDS011;13750;50.804;8.764;2023-04-03T10:03:05;0.80;;;0.60;;
25952;SDS011;13750;50.804;8.764;2023-04-03T10:05:47;0.85;;;0.70;;
25952;SDS011;13750;50.804;8.764;2023-04-03T10:10:41;1.00;;;0.87;;
25952;SDS011;13750;50.804;8.764;2023-04-03T10:13:20;1.77;;;1.13;;
25952;SDS011;13750;50.804;8.764;2023-04-03T10:19:00;1.45;;;0.68;;
25952;SDS011;13750;50.804;8.764;2023-04-03T10:39:13;0.55;;;0.55;;
25952;SDS011;13750;50.804;8.764;2023-04-03T10:41:33;1.42;;;0.70;;
25952;SDS011;13750;50.804;8.764;2023-04-03T10:47:16;0.98;;;0.50;;
25952;SDS011;13750;50.804;8.764;2023-04-03T10:50:02;2.58;;;1.02;;
25952;SDS011;13750;50.804;8.764;2023-04-03T10:52:48;2.83;;;0.90;;
25952;SDS011;13750;50.804;8.764;2023-04-03T10:58:20;0.73;;;0.60;;
25952;SDS011;13750;50.804;8.764;2023-04-03T11:23:54;0.63;;;0.63;;
25952;SDS011;13750;50.804;8.764;2023-04-03T11:56:33;2.05;;;0.60;;
25952;SDS011;13750;50.804;8.764;2023-04-03T12:04:16;1.02;;;0.50;;
25952;SDS011;13750;50.804;8.764;2023-04-03T12:09:26;1.15;;;0.70;;
25952;SDS011;13750;50.804;8.764;2023-04-03T12:11:55;1.27;;;0.70;;
25952;SDS011;13750;50.804;8.764;2023-04-03T12:16:52;1.95;;;0.63;;
25952;SDS011;13750;50.804;8.764;2023-04-03T12:19:35;1.20;;;0.70;;
25952;SDS011;13750;50.804;8.764;2023-04-03T12:22:06;1.00;;;0.52;;
25952;SDS011;13750;50.804;8.764;2023-04-03T12:24:35;0.70;;;0.60;;
25952;SDS011;13750;50.804;8.764;2023-04-03T12:35:02;0.60;;;0.60;;
25952;SDS011;13750;50.804;8.764;2023-04-03T12:43:15;0.50;;;0.40;;
25952;SDS011;13750;50.804;8.764;2023-04-03T12:48:46;0.32;;;0.30;;
25952;SDS011;13750;50.804;8.764;2023-04-03T12:51:16;1.25;;;0.90;;
25952;SDS011;13750;50.804;8.764;2023-04-03T12:53:45;2.58;;;0.82;;
25952;SDS011;13750;50.804;8.764;2023-04-03T12:59:18;0.80;;;0.50;;
25952;SDS011;13750;50.804;8.764;2023-04-03T13:01:44;0.60;;;0.60;;
25952;SDS011;13750;50.804;8.764;2023-04-03T13:04:21;1.52;;;0.57;;
25952;SDS011;13750;50.804;8.764;2023-04-03T13:06:47;1.20;;;0.50;;
25952;SDS011;13750;50.804;8.764;2023-04-03T13:09:20;1.57;;;0.60;;
25952;SDS011;13750;50.804;8.764;2023-04-03T13:12:07;2.83;;;0.82;;
25952;SDS011;13750;50.804;8.764;2023-04-03T13:14:56;1.02;;;0.63;;
25952;SDS011;13750;50.804;8.764;2023-04-03T13:17:29;1.58;;;0.60;;
25952;SDS011;13750;50.804;8.764;2023-04-03T13:19:55;0.70;;;0.67;;
25952;SDS011;13750;50.804;8.764;2023-04-03T13:22:37;2.05;;;0.80;;
25952;SDS011;13750;50.804;8.764;2023-04-03T13:25:13;1.25;;;0.70;;
25952;SDS011;13750;50.804;8.764;2023-04-03T13:27:40;3.78;;;1.20;;
25952;SDS011;13750;50.804;8.764;2023-04-03T13:30:17;3.95;;;0.70;;
25952;SDS011;13750;50.804;8.764;2023-04-03T13:32:52;1.98;;;0.75;;
25952;SDS011;13750;50.804;8.764;2023-04-03T13:35:31;2.00;;;0.55;;
25952;SDS011;13750;50.804;8.764;2023-04-03T13:38:23;1.05;;;0.70;;
25952;SDS011;13750;50.804;8.764;2023-04-03T13:40:58;7.60;;;1.10;;
25952;SDS011;13750;50.804;8.764;2023-04-03T13:43:36;1.00;;;0.75;;
25952;SDS011;13750;50.804;8.764;2023-04-03T13:48:41;1.10;;;0.70;;
25952;SDS011;13750;50.804;8.764;2023-04-03T13:53:45;1.13;;;0.70;;
25952;SDS011;13750;50.804;8.764;2023-04-03T13:56:35;0.60;;;0.50;;
25952;SDS011;13750;50.804;8.764;2023-04-03T14:01:40;1.60;;;0.68;;
25952;SDS011;13750;50.804;8.764;2023-04-03T14:04:13;0.93;;;0.70;;
25952;SDS011;13750;50.804;8.764;2023-04-03T14:06:44;1.30;;;0.60;;
25952;SDS011;13750;50.804;8.764;2023-04-03T14:09:10;1.05;;;0.70;;
25952;SDS011;13750;50.804;8.764;2023-04-03T14:11:36;2.05;;;0.70;;
25952;SDS011;13750;50.804;8.764;2023-04-03T14:14:05;1.37;;;0.77;;
25952;SDS011;13750;50.804;8.764;2023-04-03T14:16:38;0.68;;;0.50;;
25952;SDS011;13750;50.804;8.764;2023-04-03T14:19:06;1.50;;;0.70;;
25952;SDS011;13750;50.804;8.764;2023-04-03T14:21:39;1.35;;;0.90;;
25952;SDS011;13750;50.804;8.764;2023-04-03T14:24:05;1.13;;;0.60;;
25952;SDS011;13750;50.804;8.764;2023-04-03T14:26:31;0.90;;;0.53;;
25952;SDS011;13750;50.804;8.764;2023-04-03T14:28:57;1.03;;;0.60;;
25952;SDS011;13750;50.804;8.764;2023-04-03T14:31:22;2.47;;;0.90;;
25952;SDS011;13750;50.804;8.764;2023-04-03T14:33:48;1.63;;;0.83;;
25952;SDS011;13750;50.804;8.764;2023-04-03T14:36:14;2.73;;;0.50;;
25952;SDS011;13750;50.804;8.764;2023-04-03T14:38:43;1.40;;;0.80;;
25952;SDS011;13750;50.804;8.764;2023-04-03T14:41:13;1.45;;;0.70;;
25952;SDS011;13750;50.804;8.764;2023-04-03T14:43:41;1.38;;;0.65;;
25952;SDS011;13750;50.804;8.764;2023-04-03T14:46:14;1.55;;;0.70;;
25952;SDS011;13750;50.804;8.764;2023-04-03T14:48:47;0.77;;;0.40;;
25952;SDS011;13750;50.804;8.764;2023-04-03T14:51:13;1.43;;;1.07;;
25952;SDS011;13750;50.804;8.764;2023-04-03T14:53:40;2.17;;;0.82;;
25952;SDS011;13750;50.804;8.764;2023-04-03T14:56:27;2.10;;;0.80;;
25952;SDS011;13750;50.804;8.764;2023-04-03T14:58:55;1.38;;;0.60;;
25952;SDS011;13750;50.804;8.764;2023-04-03T15:01:25;0.82;;;0.60;;
25952;SDS011;13750;50.804;8.764;2023-04-03T15:03:53;1.27;;;0.70;;
25952;SDS011;13750;50.804;8.764;2023-04-03T15:06:18;2.03;;;0.70;;
25952;SDS011;13750;50.804;8.764;2023-04-03T15:08:45;1.30;;;0.73;;
25952;SDS011;13750;50.804;8.764;2023-04-03T15:11:11;4.15;;;1.00;;
25952;SDS011;13750;50.804;8.764;2023-04-03T15:13:38;4.07;;;0.70;;
25952;SDS011;13750;50.804;8.764;2023-04-03T15:16:04;1.73;;;0.82;;
25952;SDS011;13750;50.804;8.764;2023-04-03T15:18:41;1.08;;;0.75;;
25952;SDS011;13750;50.804;8.764;2023-04-03T15:21:07;1.80;;;0.73;;
25952;SDS011;13750;50.804;8.764;2023-04-03T15:23:33;1.20;;;0.70;;
25952;SDS011;13750;50.804;8.764;2023-04-03T15:25:58;1.00;;;0.70;;
25952;SDS011;13750;50.804;8.764;2023-04-03T15:28:28;2.42;;;1.00;;
25952;SDS011;13750;50.804;8.764;2023-04-03T15:30:55;1.92;;;0.98;;
25952;SDS011;13750;50.804;8.764;2023-04-03T15:33:21;2.33;;;0.73;;
25952;SDS011;13750;50.804;8.764;2023-04-03T15:35:47;2.03;;;0.90;;
25952;SDS011;13750;50.804;8.764;2023-04-03T15:38:16;2.58;;;0.68;;
25952;SDS011;13750;50.804;8.764;2023-04-03T15:40:41;1.92;;;0.95;;
25952;SDS011;13750;50.804;8.764;2023-04-03T15:43:08;1.90;;;0.90;;
25952;SDS011;13750;50.804;8.764;2023-04-03T15:45:34;0.80;;;0.68;;
25952;SDS011;13750;50.804;8.764;2023-04-03T15:48:02;1.52;;;0.77;;
25952;SDS011;13750;50.804;8.764;2023-04-03T15:50:29;1.13;;;0.70;;
25952;SDS011;13750;50.804;8.764;2023-04-03T15:52:56;2.58;;;0.70;;
25952;SDS011;13750;50.804;8.764;2023-04-03T15:55:24;1.50;;;0.63;;
25952;SDS011;13750;50.804;8.764;2023-04-03T15:57:50;1.90;;;0.90;;
25952;SDS011;13750;50.804;8.764;2023-04-03T16:00:17;1.63;;;0.98;;
25952;SDS011;13750;50.804;8.764;2023-04-03T16:02:44;0.75;;;0.60;;
25952;SDS011;13750;50.804;8.764;2023-04-03T16:05:12;1.55;;;0.60;;
25952;SDS011;13750;50.804;8.764;2023-04-03T16:07:40;2.78;;;1.17;;
25952;SDS011;13750;50.804;8.764;2023-04-03T16:10:07;1.02;;;0.52;;
25952;SDS011;13750;50.804;8.764;2023-04-03T16:12:34;0.90;;;0.75;;
25952;SDS011;13750;50.804;8.764;2023-04-03T16:15:00;0.70;;;0.70;;
25952;SDS011;13750;50.804;8.764;2023-04-03T16:17:28;1.55;;;0.80;;
25952;SDS011;13750;50.804;8.764;2023-04-03T16:22:21;2.33;;;0.90;;
25952;SDS011;13750;50.804;8.764;2023-04-03T16:24:50;3.53;;;1.40;;
25952;SDS011;13750;50.804;8.764;2023-04-03T16:27:17;1.17;;;0.60;;
25952;SDS011;13750;50.804;8.764;2023-04-03T16:29:43;2.05;;;0.90;;
25952;SDS011;13750;50.804;8.764;2023-04-03T16:32:09;1.87;;;0.97;;
25952;SDS011;13750;50.804;8.764;2023-04-03T16:34:38;3.25;;;1.10;;
25952;SDS011;13750;50.804;8.764;2023-04-03T16:37:08;1.58;;;0.90;;
25952;SDS011;13750;50.804;8.764;2023-04-03T16:39:35;1.27;;;0.60;;
25952;SDS011;13750;50.804;8.764;2023-04-03T16:42:01;0.90;;;0.70;;
25952;SDS011;13750;50.804;8.764;2023-04-03T16:44:27;2.80;;;0.90;;
25952;SDS011;13750;50.804;8.764;2023-04-03T16:46:54;1.42;;;0.80;;
25952;SDS011;13750;50.804;8.764;2023-04-03T16:49:20;0.75;;;0.60;;
25952;SDS011;13750;50.804;8.764;2023-04-03T16:51:47;1.17;;;0.75;;
25952;SDS011;13750;50.804;8.764;2023-04-03T16:54:16;1.75;;;0.80;;
25952;SDS011;13750;50.804;8.764;2023-04-03T16:56:42;1.00;;;0.65;;
25952;SDS011;13750;50.804;8.764;2023-04-03T16:59:08;0.77;;;0.70;;
25952;SDS011;13750;50.804;8.764;2023-04-03T17:01:35;2.60;;;0.98;;
25952;SDS011;13750;50.804;8.764;2023-04-03T17:04:01;3.17;;;1.47;;
25952;SDS011;13750;50.804;8.764;2023-04-03T17:06:27;1.50;;;0.90;;
25952;SDS011;13750;50.804;8.764;2023-04-03T17:08:52;3.13;;;0.98;;
25952;SDS011;13750;50.804;8.764;2023-04-03T17:11:18;2.93;;;0.80;;
25952;SDS011;13750;50.804;8.764;2023-04-03T17:13:44;0.80;;;0.60;;
25952;SDS011;13750;50.804;8.764;2023-04-03T17:16:10;0.63;;;0.57;;
25952;SDS011;13750;50.804;8.764;2023-04-03T17:18:38;0.93;;;0.40;;
25952;SDS011;13750;50.804;8.764;2023-04-03T17:21:04;2.27;;;0.93;;
25952;SDS011;13750;50.804;8.764;2023-04-03T17:23:30;0.70;;;0.60;;
25952;SDS011;13750;50.804;8.764;2023-04-03T17:25:59;1.58;;;0.80;;
25952;SDS011;13750;50.804;8.764;2023-04-03T17:28:26;1.17;;;0.60;;
25952;SDS011;13750;50.804;8.764;2023-04-03T17:30:55;1.10;;;0.60;;
25952;SDS011;13750;50.804;8.764;2023-04-03T17:33:22;1.27;;;1.00;;
25952;SDS011;13750;50.804;8.764;2023-04-03T17:35:47;0.77;;;0.50;;